tititudorancea.com
Station Historical Data
Daily Summary for August 11, 2018 Units:  Metric    English   Both
« Previous Day
Next Day »
Daily Weekly Monthly Yearly Custom
  High: Low: Average:
Temperature: -17.8 °C 3.3 °C 6.1 °C
Dew Point: -17.8 °C 1.6 °C 3.8 °C
Humidity: Humidity % 66 % 86 %
Wind Speed: 0 km/h 0 km/h 13.2 km/h
Wind Gust: 0 km/h - -
Wind:- - West
Pressure: 0 hPa 1002.6 hPa -
Precipitation: 8.2 mm    
Historical Graphs
 
 
Ararat weather Find more about Weather in Ararat, AU


 



 


Tabular Data for August 11, 2018
Time Temperature Dew Point Pressure Wind Wind Speed Wind Gust Humidity Rainfall Rate (Hourly)
-17.8 °C -17.8 °C 0 hPa Calm     Humidity % 0 mm
00:04 7.3 °C 6.4 °C 1004.6 hPa SSW 3.7 km/h 1.6 km/h 94 % 0 mm
00:09 7.3 °C 6.4 °C 1004.3 hPa North 5.6 km/h 4.5 km/h 94 % 0 mm
00:14 7.4 °C 6.5 °C 1004.6 hPa Calm     94 % 0.41 mm
00:19 7.4 °C 6.5 °C 1004.3 hPa SSW 7.4 km/h 4 km/h 94 % 0.41 mm
00:24 7.4 °C 6.5 °C 1004.3 hPa SSW 5.6 km/h 3.2 km/h 94 % 0.61 mm
00:29 7.4 °C 6.5 °C 1003.9 hPa North 5.6 km/h 4 km/h 94 % 0.61 mm
00:34 7.4 °C 6.5 °C 1003.9 hPa SSW 5.6 km/h 0.2 km/h 94 % 0.79 mm
00:39 7.4 °C 6.5 °C 1003.6 hPa North 5.6 km/h 0.6 km/h 94 % 0.79 mm
00:44 7.3 °C 6.4 °C 1003.6 hPa SSW 5.6 km/h 1.8 km/h 94 % 0.61 mm
00:49 7.3 °C 6.4 °C 1003.3 hPa North 5.6 km/h 3.5 km/h 94 % 0.41 mm
00:54 7.3 °C 6.4 °C 1003.3 hPa SSW 1.9 km/h   94 % 0.41 mm
00:59 7.3 °C 6.4 °C 1003.3 hPa Calm     94 % 0.2 mm
01:04 7.3 °C 6.4 °C 1003.3 hPa Calm     94 % 1.6 mm
01:09 7.3 °C 6.4 °C 1003.3 hPa SSW 3.7 km/h 1.1 km/h 94 % 1.6 mm
01:14 7.3 °C 6.4 °C 1003.6 hPa SSW 1.9 km/h 0.8 km/h 94 % 1.4 mm
01:19 7.3 °C 6.4 °C 1003.3 hPa Calm     94 % 1.4 mm
01:24 7.2 °C 6.3 °C 1003.3 hPa Calm     94 % 1.19 mm
01:29 7.2 °C 6.3 °C 1003.3 hPa SSW 8 km/h 5.1 km/h 94 % 0.99 mm
01:34 7 °C 6.1 °C 1003.6 hPa SW 25.9 km/h 11.9 km/h 94 % 0.79 mm
01:39 6.4 °C 5.4 °C 1003.6 hPa SW 16.7 km/h 13.4 km/h 93 % 0.79 mm
01:44 6.1 °C 5.2 °C 1003.9 hPa SW 29.6 km/h 16.6 km/h 94 % 0.99 mm
01:49 6 °C 5.1 °C 1003.9 hPa North 19.3 km/h 18.2 km/h 94 % 0.79 mm
01:54 6 °C 5.1 °C 1003.9 hPa SSW 11.1 km/h 6.8 km/h 94 % 0.79 mm
01:59 5.9 °C 5.1 °C 1003.9 hPa SSW 9.3 km/h 6.4 km/h 94 % 0.79 mm
02:04 5.9 °C 5 °C 1003.6 hPa SSW 5.6 km/h 5.8 km/h 94 % 0.79 mm
02:09 5.8 °C 4.9 °C 1003.6 hPa SSW 6.4 km/h 5 km/h 94 % 0.79 mm
02:14 5.8 °C 4.9 °C 1003.6 hPa SSW 11.3 km/h 6.8 km/h 94 % 0.61 mm
02:19 5.7 °C 4.8 °C 1003.6 hPa SSW 9.3 km/h 8.5 km/h 94 % 0.41 mm
02:24 5.6 °C 4.7 °C 1003.6 hPa SSW 9.7 km/h 7.4 km/h 94 % 0.41 mm
02:29 5.6 °C 4.7 °C 1003.3 hPa North 5.6 km/h 5.6 km/h 94 % 0.41 mm
02:34 5.6 °C 4.7 °C 1003.6 hPa SSW 9.3 km/h 6.8 km/h 94 % 0.41 mm
02:39 5.6 °C 4.7 °C 1003.3 hPa SSW 9.3 km/h 4.3 km/h 94 % 0.41 mm
02:44 5.6 °C 4.7 °C 1003.3 hPa SSW 9.3 km/h 7.1 km/h 94 % 0.2 mm
02:49 5.6 °C 4.7 °C 1002.9 hPa SSW 5.6 km/h 4.8 km/h 94 % 0.41 mm
02:54 5.6 °C 4.8 °C 1002.9 hPa North 5.6 km/h 4.2 km/h 95 % 0.41 mm
02:59 5.6 °C 4.9 °C 1003.3 hPa SSW 5.6 km/h 2.3 km/h 95 % 0.41 mm
03:04 5.6 °C 4.9 °C 1003.3 hPa SSW 7.4 km/h 6.9 km/h 95 % 0.2 mm
03:09 5.6 °C 4.8 °C 1003.3 hPa SSW 5.6 km/h 2.3 km/h 95 % 0.2 mm
03:14 5.6 °C 4.9 °C 1002.9 hPa SSW 5.6 km/h 2.6 km/h 95 % 0.2 mm
03:19 5.6 °C 4.9 °C 1002.9 hPa SSW 3.7 km/h 2.1 km/h 95 % 0.2 mm
03:24 5.7 °C 4.9 °C 1002.6 hPa SSW 5.6 km/h 1.9 km/h 95 % 0.2 mm
03:29 5.6 °C 4.7 °C 1002.6 hPa SSW 7.4 km/h 6 km/h 94 % 0.2 mm
03:34 5.5 °C 4.8 °C 1002.6 hPa SSW 1.6 km/h 1.8 km/h 95 % 0.2 mm
03:39 5.5 °C 4.8 °C 1002.6 hPa SSW 1.9 km/h   95 % 0.2 mm
03:44 5.4 °C 4.7 °C 1002.9 hPa SSW 5.6 km/h 4.2 km/h 95 % 0.2 mm
03:49 5.4 °C 4.7 °C 1002.6 hPa North 3.7 km/h 0.8 km/h 95 % 0 mm
03:54 5.4 °C 4.7 °C 1002.9 hPa North 5.6 km/h 3.7 km/h 95 % 0 mm
03:59 5.4 °C 4.7 °C 1002.6 hPa SSW 5.6 km/h 5.3 km/h 95 % 0 mm
04:04 5.4 °C 4.7 °C 1002.6 hPa SSW 7.4 km/h 6.4 km/h 95 % 0 mm
04:09 5.4 °C 4.7 °C 1002.9 hPa SSW 9.3 km/h 5.1 km/h 95 % 0 mm
04:14 5.4 °C 4.7 °C 1003.3 hPa North 4.8 km/h 1.6 km/h 95 % 0 mm
04:19 5.4 °C 4.7 °C 1003.3 hPa North 5.6 km/h 4.8 km/h 95 % 0 mm
04:24 5.3 °C 4.6 °C 1003.3 hPa SSW 7.4 km/h 5.3 km/h 95 % 0 mm
04:29 5.3 °C 4.6 °C 1003.3 hPa SSW 7.4 km/h 6 km/h 95 % 0 mm
04:34 5.3 °C 4.6 °C 1003.3 hPa North 3.7 km/h 1.6 km/h 95 % 0 mm
04:39 5.3 °C 4.6 °C 1003.3 hPa Calm     95 % 0 mm
04:44 5.3 °C 4.6 °C 1002.9 hPa SSW 3.2 km/h 1.4 km/h 95 % 0 mm
04:45 5.4 °C 4.7 °C 1002.9 hPa SSW 3.7 km/h 2.3 km/h 95 % 0 mm
07:59 6.1 °C 5.1 °C 1005.6 hPa West 5.6 km/h 4 km/h 93 % 0 mm
08:04 6.1 °C 5 °C 1005.6 hPa West 6.4 km/h 3.4 km/h 93 % 0 mm
08:09 6.1 °C 5.1 °C 1005.6 hPa West 7.4 km/h 4.5 km/h 93 % 0 mm
08:14 6.2 °C 4.9 °C 1005.6 hPa West 11.1 km/h 7.7 km/h 92 % 0 mm
08:19 6.3 °C 5.1 °C 1005.6 hPa West 7.4 km/h 7.1 km/h 92 % 0 mm
08:24 6.3 °C 4.9 °C 1005.6 hPa West 9.3 km/h 4.3 km/h 91 % 0 mm
08:29 6.3 °C 4.9 °C 1005.6 hPa West 7.4 km/h 4.5 km/h 91 % 0 mm
08:34 6.3 °C 4.9 °C 1005.6 hPa West 9.3 km/h 6.4 km/h 91 % 0 mm
08:39 6.2 °C 4.9 °C 1005.6 hPa West 6.4 km/h 5.6 km/h 91 % 0 mm
08:42 6.2 °C 4.9 °C 1005.6 hPa West 5.6 km/h 2.6 km/h 91 % 0 mm
08:49 6.3 °C 5.1 °C 1006 hPa West 5.6 km/h 4 km/h 92 % 0 mm
08:54 6.3 °C 4.9 °C 1006 hPa West 9.3 km/h 6.1 km/h 91 % 0 mm
08:59 6.4 °C 5.2 °C 1006 hPa West 4.8 km/h 1.4 km/h 92 % 0 mm
09:04 6.6 °C 5.3 °C 1006 hPa West 3.7 km/h 1.8 km/h 92 % 0 mm
09:09 6.7 °C 5.4 °C 1005.6 hPa West 4.8 km/h 0.6 km/h 92 % 0 mm
09:14 6.9 °C 5.7 °C 1005.6 hPa WNW 5.6 km/h 4.2 km/h 92 % 0 mm
09:19 7.2 °C 5.9 °C 1006 hPa West 6.4 km/h 1.9 km/h 92 % 0 mm
09:24 7.2 °C 5.8 °C 1006 hPa West 3.7 km/h   91 % 0 mm
09:29 7.2 °C 5.6 °C 1006 hPa West 13 km/h 7.1 km/h 90 % 0 mm
09:34 7.3 °C 5.3 °C 1006 hPa West 14.8 km/h 10.6 km/h 87 % 0 mm
09:39 7.5 °C 5.2 °C 1006 hPa WNW 16.7 km/h 8.2 km/h 85 % 0 mm
09:44 7.6 °C 5.1 °C 1006 hPa WNW 18.5 km/h 10.6 km/h 84 % 0 mm
09:49 7.8 °C 5.4 °C 1006 hPa NW 13 km/h 12.6 km/h 85 % 0 mm
09:54 8 °C 5.4 °C 1006 hPa NW 16.7 km/h 11.9 km/h 84 % 0 mm
09:59 8 °C 5.3 °C 1006 hPa North 16.7 km/h 10.1 km/h 83 % 0 mm
10:04 8 °C 5.3 °C 1006 hPa NW 12.9 km/h 11.4 km/h 83 % 0 mm
10:09 8.2 °C 5.2 °C 1006 hPa North 18.5 km/h 11.1 km/h 81 % 0 mm
10:14 8.3 °C 4.8 °C 1006.3 hPa NW 24.1 km/h 16.1 km/h 79 % 0 mm
10:19 8.4 °C 5 °C 1006.3 hPa NNW 18.5 km/h 10.3 km/h 79 % 0 mm
10:24 8.7 °C 5.3 °C 1006.3 hPa NNW 11.3 km/h 10.5 km/h 79 % 0 mm
10:29 8.7 °C 5.4 °C 1006.3 hPa North 13 km/h 12.7 km/h 80 % 0 mm
10:34 8.6 °C 5.3 °C 1006.3 hPa NNW 11.1 km/h 6.3 km/h 80 % 0 mm
10:39 8.6 °C 5.3 °C 1006.3 hPa NNW 16.1 km/h 11.4 km/h 80 % 0 mm
10:44 8.4 °C 5 °C 1006.7 hPa North 14.8 km/h 8.5 km/h 79 % 0 mm
10:49 8.5 °C 5.1 °C 1006.7 hPa NW 11.1 km/h 7.6 km/h 79 % 0 mm
10:54 8.4 °C 5 °C 1006.7 hPa NW 14.8 km/h 10.8 km/h 79 % 0 mm
10:59 8.2 °C 5 °C 1006.7 hPa WNW 18.5 km/h 12.9 km/h 80 % 0 mm
11:04 8.4 °C 5.6 °C 1006.7 hPa WNW 13 km/h 9.7 km/h 82 % 0 mm
11:09 8.7 °C 5.4 °C 1006.3 hPa NW 17.7 km/h 11.6 km/h 80 % 0 mm
11:14 8.8 °C 5.2 °C 1006.3 hPa North 20.9 km/h 12.9 km/h 78 % 0 mm
11:19 8.7 °C 4.7 °C 1006.3 hPa North 22.5 km/h 14.6 km/h 76 % 0 mm
11:24 8.6 °C 4.4 °C 1006.3 hPa NW 27.4 km/h 15.8 km/h 75 % 0 mm
11:29 8.6 °C 4.6 °C 1006.3 hPa NW 13 km/h 13.2 km/h 76 % 0 mm
11:34 8.6 °C 4.6 °C 1006.3 hPa North 20.9 km/h 13.2 km/h 76 % 0 mm
11:39 8.7 °C 4.9 °C 1006.3 hPa NW 20.4 km/h 11.1 km/h 77 % 0 mm
11:44 9.2 °C 5.2 °C 1006.3 hPa North 18.5 km/h 9.3 km/h 76 % 0 mm
11:49 9.4 °C 5.1 °C 1006.3 hPa NNW 20.9 km/h 15.9 km/h 74 % 0 mm
11:54 9.6 °C 4.6 °C 1006.3 hPa North 24.1 km/h 17.7 km/h 71 % 0 mm
11:59 9.1 °C 4.1 °C 1006 hPa NNW 16.7 km/h 10.6 km/h 71 % 0 mm
12:04 8.9 °C 4.4 °C 1006 hPa WNW 25.7 km/h 18.2 km/h 73 % 0 mm
12:09 9.2 °C 4.4 °C 1006 hPa North 13 km/h 7.9 km/h 72 % 0 mm
12:14 9.7 °C 4.5 °C 1006 hPa NW 18.5 km/h 13.2 km/h 70 % 0 mm
12:19 10.1 °C 4.7 °C 1006 hPa WNW 18.5 km/h 10.9 km/h 69 % 0 mm
12:24 9.6 °C 3.5 °C 1006 hPa NW 31.5 km/h 21.9 km/h 66 % 0 mm
12:29 9.1 °C 3.5 °C 1005.6 hPa North 31.5 km/h 21.9 km/h 68 % 0 mm
12:34 8.9 °C 3.7 °C 1005.6 hPa NW 16.7 km/h 12.9 km/h 70 % 0 mm
12:39 8.7 °C 3.9 °C 1006 hPa NW 22.2 km/h 20.1 km/h 72 % 0 mm
12:44 8.1 °C 3.8 °C 1006.3 hPa NW 29.6 km/h 16.9 km/h 74 % 0 mm
12:49 7.4 °C 3.7 °C 1006.3 hPa WNW 29.6 km/h 21.2 km/h 77 % 0.2 mm
12:54 6.9 °C 3.7 °C 1006.3 hPa West 33.3 km/h 29.9 km/h 80 % 0.41 mm
12:59 6.4 °C 3.6 °C 1006.3 hPa North 20.4 km/h 18.7 km/h 82 % 0.79 mm
13:04 6.2 °C 3.6 °C 1006.3 hPa WNW 18.5 km/h 16.3 km/h 83 % 1.19 mm
13:09 5.9 °C 3.2 °C 1006.3 hPa WNW 25.9 km/h 17.1 km/h 83 % 1.6 mm
13:14 5.6 °C 3.1 °C 1006.3 hPa WNW 16.1 km/h 11.3 km/h 84 % 2.21 mm
13:19 5.4 °C 3.1 °C 1006 hPa WNW 14.8 km/h 11.3 km/h 85 % 2.79 mm
13:24 5.6 °C 3.6 °C 1006 hPa NW 16.7 km/h 10.9 km/h 87 % 3 mm
13:29 5.8 °C 4 °C 1006 hPa North 18.5 km/h 9.5 km/h 88 % 3 mm
13:34 6.6 °C 4.9 °C 1006 hPa NW 13 km/h 10.5 km/h 89 % 3 mm
13:39 7 °C 4.8 °C 1006 hPa North 18.5 km/h 12.1 km/h 86 % 3 mm
13:44 7.3 °C 4.8 °C 1006 hPa NW 9.7 km/h 7.1 km/h 84 % 3 mm
13:49 7.9 °C 5.4 °C 1006 hPa WNW 13 km/h 11.7 km/h 84 % 2.79 mm
13:54 8.1 °C 4.9 °C 1006 hPa WNW 20.4 km/h 12.6 km/h 80 % 2.59 mm
13:59 8.1 °C 4.9 °C 1006 hPa NW 20.9 km/h 16.9 km/h 80 % 2.21 mm
14:04 8.3 °C 4.7 °C 1006 hPa NW 29.6 km/h 17.1 km/h 78 % 1.8 mm
14:09 8.3 °C 4.7 °C 1006 hPa West 24.1 km/h 18 km/h 78 % 1.4 mm
14:14 8.5 °C 4.5 °C 1006 hPa WNW 14.8 km/h 7.1 km/h 76 % 0.79 mm
14:19 8.6 °C 4.6 °C 1006 hPa WNW 18.5 km/h 11.7 km/h 76 % 0.2 mm
14:24 8.7 °C 4.7 °C 1006 hPa WNW 11.3 km/h 7.6 km/h 76 % 0 mm
14:29 8.7 °C 4.2 °C 1006 hPa NW 18.5 km/h 8.9 km/h 73 % 0 mm
14:34 8.8 °C 4.6 °C 1006 hPa NW 9.3 km/h 6.4 km/h 75 % 0 mm
14:39 8.8 °C 4 °C 1006 hPa North 25.9 km/h 21.6 km/h 72 % 0 mm
14:44 8.9 °C 4.4 °C 1006.3 hPa WNW 22.5 km/h 16.1 km/h 73 % 0 mm
14:49 9.2 °C 4.2 °C 1006.3 hPa WNW 27.8 km/h 18.7 km/h 71 % 0 mm
14:54 9.1 °C 3.9 °C 1006.3 hPa West 31.5 km/h 20.9 km/h 70 % 0 mm
14:59 8.9 °C 3.8 °C 1006.3 hPa WNW 25.9 km/h 20 km/h 70 % 0 mm
15:04 8.8 °C 3.4 °C 1006.3 hPa WNW 25.9 km/h 17.7 km/h 69 % 0 mm
15:09 8.9 °C 3.9 °C 1006.3 hPa WNW 16.7 km/h 11.3 km/h 71 % 0 mm
15:14 9.2 °C 3.6 °C 1006 hPa WNW 22.2 km/h 17.4 km/h 68 % 0 mm
15:19 9.2 °C 3.6 °C 1006.3 hPa North 25.9 km/h 14.8 km/h 68 % 0 mm
15:24 9.1 °C 3.5 °C 1006.3 hPa WNW 17.7 km/h 13.4 km/h 68 % 0 mm
15:29 8.7 °C 3.6 °C 1006.7 hPa NW 17.7 km/h 11.7 km/h 70 % 0 mm
15:34 8.4 °C 3.1 °C 1006.7 hPa North 14.8 km/h 13.7 km/h 69 % 0 mm
15:39 8.3 °C 3.2 °C 1006.7 hPa North 22.2 km/h 14.5 km/h 70 % 0 mm
15:44 8.3 °C 3.4 °C 1006.7 hPa North 19.3 km/h 15.9 km/h 71 % 0 mm
15:49 8.2 °C 3.4 °C 1007 hPa North 19.3 km/h 14.3 km/h 72 % 0 mm
15:54 7.7 °C 3.6 °C 1007.3 hPa West 18.5 km/h 13.8 km/h 75 % 0.2 mm
15:59 7.4 °C 3.8 °C 1007 hPa WSW 16.7 km/h 12.9 km/h 78 % 0.2 mm
16:04 7.2 °C 3.8 °C 1007.3 hPa WSW 7.4 km/h 5.3 km/h 79 % 0.2 mm
16:09 7.1 °C 3.9 °C 1007.3 hPa WSW 11.1 km/h 8.7 km/h 80 % 0.2 mm
16:14 7.1 °C 4 °C 1007.3 hPa WSW 8 km/h 5.8 km/h 81 % 0.2 mm
16:19 7.1 °C 4.2 °C 1007.3 hPa WSW 6.4 km/h 3.4 km/h 82 % 0.2 mm
16:24 7.1 °C 4.2 °C 1007.3 hPa WSW 9.3 km/h 5.8 km/h 82 % 0.2 mm
16:29 7.1 °C 4.2 °C 1007.7 hPa WSW 9.3 km/h 6.3 km/h 82 % 0.2 mm
16:34 7.2 °C 4.4 °C 1007.7 hPa WSW 7.4 km/h 5.1 km/h 83 % 0.2 mm
16:39 7.2 °C 4.4 °C 1008 hPa WSW 13 km/h 5.8 km/h 83 % 0.2 mm
16:44 6.7 °C 3.6 °C 1008.7 hPa SW 33.3 km/h 28.5 km/h 81 % 0.2 mm
16:49 5.1 °C 2.4 °C 1008.7 hPa WSW 27.8 km/h 20.9 km/h 83 % 0.79 mm
16:54 4.7 °C 2.5 °C 1008.7 hPa WSW 18.5 km/h 13 km/h 86 % 0.99 mm
16:59 4.5 °C 2.5 °C 1008.7 hPa West 14.8 km/h 11.3 km/h 87 % 0.99 mm
17:04 4.5 °C 2.7 °C 1008.7 hPa WSW 16.1 km/h 13.7 km/h 88 % 1.19 mm
17:09 4.7 °C 2.8 °C 1008.7 hPa North 11.1 km/h 6.8 km/h 88 % 1.19 mm
17:14 4.7 °C 2.7 °C 1008.7 hPa North 14.5 km/h 12.1 km/h 87 % 1.19 mm
17:19 4.8 °C 2.8 °C 1008.7 hPa West 9.3 km/h 8 km/h 87 % 1.19 mm
17:24 4.8 °C 2.8 °C 1008.7 hPa North 8 km/h 5.6 km/h 87 % 1.19 mm
17:29 4.7 °C 2.7 °C 1008.7 hPa West 7.4 km/h 6.9 km/h 87 % 1.19 mm
17:34 4.7 °C 2.7 °C 1008.7 hPa North 9.3 km/h 5.5 km/h 87 % 1.19 mm
17:39 4.8 °C 2.8 °C 1008.7 hPa West 9.3 km/h 6.1 km/h 87 % 1.19 mm
17:44 4.8 °C 2.8 °C 1009 hPa West 5.6 km/h 4 km/h 87 % 1.19 mm
17:49 4.8 °C 2.8 °C 1009 hPa West 9.3 km/h 6.6 km/h 87 % 0.61 mm
17:54 4.8 °C 2.8 °C 1009 hPa West 5.6 km/h 4.5 km/h 87 % 0.2 mm
17:59 4.8 °C 2.8 °C 1009 hPa West 6.4 km/h 4.3 km/h 87 % 0.2 mm
18:04 4.8 °C 2.8 °C 1009.4 hPa West 5.6 km/h 2.7 km/h 87 % 0 mm
18:09 4.8 °C 2.8 °C 1009.4 hPa West 11.1 km/h 7.6 km/h 87 % 0 mm
18:14 4.9 °C 2.9 °C 1009.7 hPa North 7.4 km/h 6.8 km/h 87 % 0 mm
18:19 4.9 °C 2.9 °C 1009.7 hPa North 5.6 km/h 4.5 km/h 87 % 0 mm
18:24 4.9 °C 2.9 °C 1010 hPa West 7.4 km/h 6.6 km/h 87 % 0 mm
18:29 5 °C 3 °C 1010.4 hPa West 8 km/h 5.6 km/h 87 % 0 mm
18:34 4.9 °C 2.9 °C 1010.4 hPa SSW 27.8 km/h 19.3 km/h 87 % 0 mm
18:39 4.4 °C 2.4 °C 1010.4 hPa SSW 18.5 km/h 16.1 km/h 87 % 0 mm
18:44 4.1 °C 2.2 °C 1010.7 hPa SSW 18.5 km/h 10.8 km/h 87 % 0 mm
18:49 3.9 °C 2.1 °C 1010.7 hPa SSW 11.1 km/h 7.2 km/h 88 % 0 mm
18:54 3.9 °C 2.2 °C 1010.7 hPa SSW 13 km/h 10.8 km/h 89 % 0 mm
18:59 3.9 °C 2.2 °C 1010.7 hPa SW 13 km/h 11.6 km/h 89 % 0 mm
19:04 3.9 °C 2.3 °C 1010.7 hPa WSW 24.1 km/h 11.4 km/h 89 % 0 mm
19:09 3.9 °C 2.3 °C 1011.1 hPa WSW 18.5 km/h 9.8 km/h 89 % 0.2 mm
19:14 3.9 °C 2.3 °C 1010.7 hPa WSW 14.8 km/h 8 km/h 89 % 0.2 mm
19:19 3.9 °C 2.3 °C 1011.1 hPa North 13 km/h 8.9 km/h 89 % 0.41 mm
19:24 4 °C 2.5 °C 1011.1 hPa WSW 16.1 km/h 7.1 km/h 90 % 0.41 mm
19:29 3.9 °C 2.4 °C 1011.1 hPa North 5.6 km/h 3.7 km/h 90 % 0.41 mm
19:34 3.9 °C 2.4 °C 1011.1 hPa WSW 13 km/h 10.8 km/h 90 % 0.41 mm
19:39 3.9 °C 2.4 °C 1011.4 hPa WSW 6.4 km/h 8.5 km/h 90 % 0.41 mm
19:44 3.8 °C 2.3 °C 1011.4 hPa WSW 9.3 km/h 7.4 km/h 90 % 0.41 mm
19:49 3.9 °C 2.4 °C 1011.4 hPa WSW 9.7 km/h 9.8 km/h 90 % 0.41 mm
19:54 4 °C 2.5 °C 1011.7 hPa SW 20.4 km/h 13.4 km/h 90 % 0.41 mm
19:59 3.9 °C 2.4 °C 1011.7 hPa North 17.7 km/h 11.4 km/h 90 % 0.61 mm
20:04 3.9 °C 2.4 °C 1011.7 hPa WSW 22.2 km/h 15.3 km/h 90 % 0.61 mm
20:09 3.9 °C 2.4 °C 1011.7 hPa WSW 20.9 km/h 17.7 km/h 90 % 0.41 mm
20:14 3.9 °C 2.4 °C 1012.1 hPa WSW 25.9 km/h 21.9 km/h 90 % 0.41 mm
20:19 3.9 °C 2.2 °C 1011.7 hPa WSW 24.1 km/h 12.9 km/h 89 % 0.41 mm
20:24 4 °C 2.3 °C 1011.7 hPa West 22.2 km/h 12.4 km/h 89 % 0.41 mm
20:29 4 °C 2.3 °C 1011.7 hPa West 13 km/h 11.4 km/h 89 % 0.41 mm
20:34 4.1 °C 2.4 °C 1011.7 hPa West 11.1 km/h 7.1 km/h 89 % 0.41 mm
20:39 4 °C 2.3 °C 1012.1 hPa North 14.8 km/h 9 km/h 89 % 0.41 mm
20:44 4 °C 2.3 °C 1012.1 hPa West 14.5 km/h 9.8 km/h 89 % 0.41 mm
20:49 4 °C 2.3 °C 1012.4 hPa West 11.1 km/h 7.7 km/h 89 % 0.41 mm
20:54 4 °C 2.3 °C 1012.4 hPa West 13 km/h 10.9 km/h 89 % 0.41 mm
20:59 4 °C 2.3 °C 1012.4 hPa WSW 14.8 km/h 11.6 km/h 89 % 0.2 mm
21:04 4.1 °C 2.3 °C 1012.8 hPa WSW 14.8 km/h 9.2 km/h 88 % 0.2 mm
21:09 4.2 °C 2.3 °C 1012.8 hPa WSW 11.3 km/h 9 km/h 88 % 0.2 mm
21:14 4.1 °C 2.1 °C 1012.8 hPa WSW 16.7 km/h 6.3 km/h 87 % 0.2 mm
21:19 3.9 °C 2.1 °C 1012.8 hPa WSW 16.7 km/h 8.4 km/h 88 % 0 mm
21:24 3.9 °C 2.1 °C 1013.1 hPa North 13 km/h 10.8 km/h 88 % 0 mm
21:29 3.8 °C 2 °C 1013.1 hPa North 8 km/h 9.2 km/h 88 % 0 mm
21:34 3.8 °C 2 °C 1013.1 hPa WSW 14.8 km/h 9.7 km/h 88 % 0 mm
21:39 3.8 °C 2 °C 1013.1 hPa North 13 km/h 7.2 km/h 88 % 0 mm
21:44 3.8 °C 2 °C 1013.4 hPa WSW 11.3 km/h 9.7 km/h 88 % 0 mm
21:49 3.9 °C 2.1 °C 1013.4 hPa WSW 8 km/h 6.3 km/h 88 % 0 mm
21:54 3.9 °C 2.1 °C 1013.4 hPa WSW 13 km/h 9.2 km/h 88 % 0 mm
21:59 3.9 °C 2.1 °C 1013.8 hPa WSW 18.5 km/h 10.9 km/h 88 % 0 mm
22:04 3.9 °C 2.1 °C 1013.8 hPa SSW 11.1 km/h 8.9 km/h 88 % 0 mm
22:09 3.8 °C 2 °C 1013.8 hPa SSW 13 km/h 6.6 km/h 88 % 0 mm
22:14 3.8 °C 2 °C 1013.8 hPa SSW 13 km/h 7.9 km/h 88 % 0 mm
22:19 3.8 °C 2 °C 1014.1 hPa SSW 11.1 km/h 6.6 km/h 88 % 0 mm
22:24 3.8 °C 2 °C 1014.1 hPa SW 16.7 km/h 9.8 km/h 88 % 0 mm
22:29 3.8 °C 2 °C 1014.1 hPa SW 11.1 km/h 7.2 km/h 88 % 0 mm
22:34 3.9 °C 2.1 °C 1014.4 hPa SW 18.5 km/h 13.2 km/h 88 % 0 mm
22:39 3.9 °C 2.1 °C 1014.4 hPa SW 11.3 km/h 8 km/h 88 % 0 mm
22:44 3.9 °C 2.1 °C 1014.4 hPa SW 16.7 km/h 12.1 km/h 88 % 0 mm
22:49 3.9 °C 2.1 °C 1014.4 hPa North 18.5 km/h 10.9 km/h 88 % 0 mm
22:54 3.8 °C 1.9 °C 1014.4 hPa WSW 13 km/h 7.6 km/h 87 % 0 mm
22:59 3.7 °C 1.9 °C 1014.1 hPa WSW 11.3 km/h 6.8 km/h 88 % 0 mm
23:04 3.7 °C 1.9 °C 1014.4 hPa WSW 16.7 km/h 8.9 km/h 88 % 0 mm
23:09 3.7 °C 1.9 °C 1014.1 hPa WSW 16.7 km/h 10 km/h 88 % 0 mm
23:14 3.6 °C 1.8 °C 1014.4 hPa WSW 13 km/h 7.6 km/h 88 % 0 mm
23:19 3.5 °C 1.7 °C 1014.4 hPa WSW 14.5 km/h 9.8 km/h 88 % 0 mm
23:24 3.4 °C 1.7 °C 1014.4 hPa WSW 16.7 km/h 8 km/h 88 % 0 mm
23:29 3.4 °C 1.6 °C 1014.4 hPa WSW 13 km/h 10.3 km/h 88 % 0 mm
23:34 3.3 °C 1.7 °C 1014.8 hPa WSW 14.8 km/h 9.7 km/h 89 % 0 mm
23:39 3.4 °C 1.7 °C 1014.8 hPa North 13 km/h 9.2 km/h 89 % 0 mm
23:44 3.4 °C 1.8 °C 1014.8 hPa WSW 14.8 km/h 5.6 km/h 89 % 0 mm
23:49 3.4 °C 1.7 °C 1014.8 hPa WSW 9.3 km/h 6 km/h 88 % 0 mm
23:54 3.4 °C 1.7 °C 1014.8 hPa WSW 9.7 km/h 7.2 km/h 88 % 0 mm
23:59 3.5 °C 1.7 °C 1014.8 hPa WSW 7.4 km/h 5.6 km/h 88 % 0 mm
Ararat Weather
Compliments of Weather Underground - 2 mb
Click here to send mail.


ABOUT

Live weather data from Ararat, Victoria, Australia, 3377
Data uploaded from Cumulus every 5 minutes to Weather Underground.
This site then downloads the raw data for formatting and display.
Metric and imperial data can be displayed. Graphs and historical data available.
Includes Sun and Moon times and rain image live from BOM.

Check out Ararat Weather on Facebook, Twitter and Google +

Help support ongoing costs by checking out the ads





Follow @AraratWeather